createdAt,value
2023-04-27T00:01:28.601Z,15.92
2023-04-27T00:03:55.305Z,15.46
2023-04-27T00:06:22.493Z,15.69
2023-04-27T00:08:53.267Z,15.59
2023-04-27T00:11:27.025Z,15.45
2023-04-27T00:13:53.578Z,15.84
2023-04-27T00:16:28.161Z,15.43
2023-04-27T00:18:54.828Z,14.86
2023-04-27T00:21:21.337Z,14.76
2023-04-27T00:23:48.181Z,14.56
2023-04-27T00:26:14.980Z,14.46
2023-04-27T00:28:41.597Z,15.00
2023-04-27T00:31:09.925Z,15.02
2023-04-27T00:33:40.525Z,15.14
2023-04-27T00:36:07.040Z,15.01
2023-04-27T00:38:33.794Z,14.79
2023-04-27T00:41:00.355Z,14.63
2023-04-27T00:43:28.911Z,14.51
2023-04-27T00:45:55.470Z,14.38
2023-04-27T00:48:22.409Z,14.24
2023-04-27T00:50:49.014Z,14.70
2023-04-27T00:53:15.560Z,15.72
2023-04-27T00:55:42.361Z,16.07
2023-04-27T00:58:11.154Z,15.51
2023-04-27T01:00:37.941Z,15.27
2023-04-27T01:03:04.731Z,15.95
2023-04-27T01:05:32.582Z,16.47
2023-04-27T01:07:59.334Z,16.44
2023-04-27T01:10:26.230Z,16.18
2023-04-27T01:12:53.048Z,16.43
2023-04-27T01:15:20.900Z,16.65
2023-04-27T01:17:47.755Z,15.93
2023-04-27T01:20:14.381Z,16.08
2023-04-27T01:22:41.128Z,15.84
2023-04-27T01:25:07.684Z,15.54
2023-04-27T01:27:34.275Z,15.62
2023-04-27T01:30:01.174Z,14.67
2023-04-27T01:32:29.253Z,14.62
2023-04-27T01:34:55.801Z,15.13
2023-04-27T01:37:22.408Z,14.89
2023-04-27T01:39:48.927Z,15.05
2023-04-27T01:42:15.479Z,14.84
2023-04-27T01:44:49.321Z,14.62
2023-04-27T01:47:18.111Z,14.47
2023-04-27T01:49:46.222Z,14.67
2023-04-27T01:52:12.712Z,14.78
2023-04-27T01:54:39.851Z,14.26
2023-04-27T01:57:06.497Z,14.41
2023-04-27T01:59:32.985Z,14.64
2023-04-27T02:01:59.848Z,15.04
2023-04-27T02:04:26.829Z,15.02
2023-04-27T02:06:53.777Z,14.93
2023-04-27T02:09:21.178Z,14.06
2023-04-27T02:11:47.928Z,14.00
2023-04-27T02:14:14.493Z,14.07
2023-04-27T02:16:41.439Z,14.05
2023-04-27T02:19:09.092Z,13.51
2023-04-27T02:21:35.901Z,13.68
2023-04-27T02:24:06.539Z,13.33
2023-04-27T02:26:33.245Z,13.44
2023-04-27T02:29:00.136Z,13.27
2023-04-27T02:31:27.246Z,13.24
2023-04-27T02:33:53.926Z,13.24
2023-04-27T02:36:22.893Z,13.51
2023-04-27T02:38:51.508Z,13.93
2023-04-27T02:41:17.979Z,13.99
2023-04-27T02:43:44.491Z,13.46
2023-04-27T02:46:11.490Z,13.52
2023-04-27T02:48:38.397Z,13.51
2023-04-27T02:51:07.947Z,13.59
2023-04-27T02:53:34.507Z,13.26
2023-04-27T02:56:01.034Z,13.68
2023-04-27T02:58:33.761Z,13.61
2023-04-27T03:01:00.735Z,13.52
2023-04-27T03:03:27.409Z,13.57
2023-04-27T03:05:54.139Z,13.31
2023-04-27T03:08:21.503Z,13.35
2023-04-27T03:10:48.034Z,13.46
2023-04-27T03:13:14.668Z,13.59
2023-04-27T03:15:41.224Z,13.47
2023-04-27T03:18:07.980Z,13.51
2023-04-27T03:20:34.590Z,13.81
2023-04-27T03:23:01.464Z,13.80
2023-04-27T03:25:28.180Z,13.07
2023-04-27T03:27:55.105Z,12.68
2023-04-27T03:30:21.721Z,12.60
2023-04-27T03:32:48.272Z,12.94
2023-04-27T03:35:17.244Z,13.33
2023-04-27T03:37:44.062Z,13.85
2023-04-27T03:40:10.563Z,13.23
2023-04-27T03:42:37.189Z,12.90
2023-04-27T03:47:34.633Z,13.14
2023-04-27T03:50:02.129Z,13.08
2023-04-27T03:52:28.972Z,13.35
2023-04-27T03:54:55.630Z,13.18
2023-04-27T03:57:22.167Z,13.30
2023-04-27T03:59:48.915Z,13.94
2023-04-27T04:02:15.868Z,14.58
2023-04-27T04:04:43.081Z,14.48
2023-04-27T04:07:10.591Z,13.69
2023-04-27T04:09:37.174Z,13.48
2023-04-27T04:12:04.073Z,13.82
2023-04-27T04:14:35.074Z,14.57
2023-04-27T04:17:01.672Z,14.90
2023-04-27T04:19:28.419Z,15.00
2023-04-27T04:21:54.940Z,14.56
2023-04-27T04:24:21.685Z,14.14
2023-04-27T04:26:48.202Z,13.48
2023-04-27T04:29:15.059Z,13.13
2023-04-27T04:31:48.779Z,13.48
2023-04-27T04:34:17.235Z,14.01
2023-04-27T04:36:43.782Z,14.36
2023-04-27T04:39:10.333Z,13.91
2023-04-27T04:41:36.780Z,13.36
2023-04-27T04:44:03.645Z,13.20
2023-04-27T04:46:30.227Z,13.28
2023-04-27T04:48:56.750Z,12.77
2023-04-27T04:51:23.259Z,12.97
2023-04-27T04:53:49.822Z,13.70
2023-04-27T04:56:16.419Z,14.17
2023-04-27T04:58:43.283Z,14.04
2023-04-27T05:01:09.891Z,13.76
2023-04-27T05:03:36.664Z,13.50
2023-04-27T05:06:06.946Z,13.91
2023-04-27T05:08:35.965Z,14.62
2023-04-27T05:11:02.619Z,14.76
2023-04-27T05:13:31.319Z,15.97
2023-04-27T05:15:58.040Z,17.42
2023-04-27T05:18:24.747Z,18.98
2023-04-27T05:20:53.659Z,19.77
2023-04-27T05:23:20.164Z,20.65
2023-04-27T05:25:49.393Z,21.26
2023-04-27T05:28:16.296Z,22.13
2023-04-27T05:30:45.583Z,23.15
2023-04-27T05:33:14.506Z,23.97
2023-04-27T05:35:42.850Z,24.00
2023-04-27T05:38:09.507Z,24.89
2023-04-27T05:40:36.328Z,25.20
2023-04-27T05:43:02.770Z,25.38
2023-04-27T05:45:33.410Z,25.36
2023-04-27T05:50:47.669Z,23.99
2023-04-27T05:53:19.164Z,23.34
2023-04-27T05:55:46.353Z,23.17
2023-04-27T05:58:12.868Z,23.67
2023-04-27T06:00:40.527Z,24.28
2023-04-27T06:03:07.344Z,23.40
2023-04-27T06:05:34.354Z,23.47
2023-04-27T06:08:01.337Z,24.38
2023-04-27T06:10:28.076Z,25.35
2023-04-27T06:12:55.670Z,26.07
2023-04-27T06:15:29.625Z,26.72
2023-04-27T06:17:56.253Z,26.69
2023-04-27T06:20:22.915Z,27.24
2023-04-27T06:22:53.242Z,26.87
2023-04-27T06:25:23.742Z,26.53
2023-04-27T06:27:53.480Z,26.77
2023-04-27T06:30:20.454Z,26.26
2023-04-27T06:32:47.253Z,26.40
2023-04-27T06:35:13.807Z,26.84
2023-04-27T06:37:40.481Z,26.70
2023-04-27T06:40:07.933Z,26.52
2023-04-27T06:42:34.713Z,25.88
2023-04-27T06:45:02.203Z,25.18
2023-04-27T06:47:29.807Z,24.12
2023-04-27T06:49:57.476Z,23.78
2023-04-27T06:52:24.057Z,24.16
2023-04-27T06:54:52.173Z,24.72
2023-04-27T06:57:19.899Z,24.33
2023-04-27T06:59:49.593Z,24.25
2023-04-27T07:02:16.761Z,24.31
2023-04-27T07:04:45.978Z,24.81
2023-04-27T07:07:13.143Z,23.93
2023-04-27T07:09:39.630Z,23.98
2023-04-27T07:12:06.522Z,23.99
2023-04-27T07:14:33.179Z,24.08
2023-04-27T07:17:00.797Z,24.92
2023-04-27T07:19:27.748Z,25.44
2023-04-27T07:21:54.339Z,24.83
2023-04-27T07:24:23.316Z,23.20
2023-04-27T07:26:49.912Z,22.15
2023-04-27T07:29:26.341Z,22.07
2023-04-27T07:31:54.354Z,21.40
2023-04-27T07:34:22.367Z,21.79
2023-04-27T07:36:48.960Z,21.69
2023-04-27T07:39:20.537Z,22.09
2023-04-27T07:41:47.905Z,21.53
2023-04-27T07:44:14.833Z,21.63
2023-04-27T07:46:42.890Z,21.94
2023-04-27T07:49:10.220Z,22.11
2023-04-27T07:51:37.084Z,22.22
2023-04-27T07:54:03.946Z,22.22
2023-04-27T07:56:31.657Z,22.24
2023-04-27T07:58:58.409Z,21.60
2023-04-27T08:01:25.045Z,21.76
2023-04-27T08:03:51.974Z,21.40
2023-04-27T08:06:19.845Z,21.42
2023-04-27T08:08:46.773Z,20.92
2023-04-27T08:11:13.686Z,21.21
2023-04-27T08:13:40.146Z,20.29
2023-04-27T08:16:10.035Z,19.66
2023-04-27T08:18:36.923Z,20.01
2023-04-27T08:21:03.755Z,20.17
2023-04-27T08:23:30.436Z,20.21
2023-04-27T08:25:57.265Z,20.21
2023-04-27T08:28:24.599Z,20.28
2023-04-27T08:30:51.106Z,20.29
2023-04-27T08:33:17.650Z,20.54
2023-04-27T08:35:44.664Z,20.25
2023-04-27T08:38:11.135Z,20.42
2023-04-27T08:40:46.112Z,20.67
2023-04-27T08:43:13.822Z,20.55
2023-04-27T08:45:41.325Z,20.16
2023-04-27T08:48:08.795Z,20.05
2023-04-27T08:50:37.824Z,20.47
2023-04-27T08:53:04.564Z,20.40
2023-04-27T08:55:31.512Z,20.39
2023-04-27T08:57:58.384Z,20.83
2023-04-27T09:00:24.959Z,20.74
2023-04-27T09:02:51.640Z,20.42
2023-04-27T09:08:03.826Z,20.39
2023-04-27T09:10:30.639Z,20.86
2023-04-27T09:12:58.474Z,21.47
2023-04-27T09:15:25.023Z,20.73
2023-04-27T09:17:51.788Z,20.26
2023-04-27T09:20:18.373Z,20.69
2023-04-27T09:22:45.174Z,19.99
2023-04-27T09:25:11.796Z,20.61
2023-04-27T09:27:38.560Z,21.02
2023-04-27T09:30:05.207Z,20.55
2023-04-27T09:32:32.076Z,20.51
2023-04-27T09:34:59.278Z,20.50
2023-04-27T09:37:25.954Z,20.59
2023-04-27T09:39:54.525Z,20.69
2023-04-27T09:42:21.017Z,20.52
2023-04-27T09:44:48.385Z,20.69
2023-04-27T09:47:18.904Z,20.74
2023-04-27T09:49:45.765Z,20.92
2023-04-27T09:52:12.864Z,20.77
2023-04-27T09:54:39.618Z,19.97
2023-04-27T09:57:09.163Z,20.44
2023-04-27T09:59:35.761Z,20.45
2023-04-27T10:02:10.068Z,19.99
2023-04-27T10:04:44.178Z,20.47
2023-04-27T10:07:11.828Z,20.32
2023-04-27T10:09:40.773Z,20.83
2023-04-27T10:12:10.549Z,21.02
2023-04-27T10:14:37.215Z,21.10
2023-04-27T10:17:04.978Z,20.86
2023-04-27T10:19:32.621Z,20.98
2023-04-27T10:21:59.326Z,21.59
2023-04-27T10:24:26.057Z,21.44
2023-04-27T10:26:53.189Z,21.24
2023-04-27T10:29:23.106Z,21.39
2023-04-27T10:31:52.388Z,21.43
2023-04-27T10:34:21.451Z,21.54
2023-04-27T10:36:48.957Z,21.28
2023-04-27T10:39:16.151Z,20.36
2023-04-27T10:41:43.765Z,20.24
2023-04-27T10:44:10.466Z,20.42
2023-04-27T10:46:37.464Z,20.78
2023-04-27T10:49:05.955Z,20.76
2023-04-27T10:51:32.831Z,20.54
2023-04-27T10:54:00.955Z,20.90
2023-04-27T10:56:27.697Z,21.45
2023-04-27T10:58:55.075Z,21.18
2023-04-27T11:01:21.773Z,20.82
2023-04-27T11:03:49.150Z,20.60
2023-04-27T11:06:16.422Z,20.28
2023-04-27T11:08:42.956Z,20.92
2023-04-27T11:11:10.053Z,21.25
2023-04-27T11:13:39.835Z,20.99
2023-04-27T11:16:06.570Z,21.16
2023-04-27T11:18:33.249Z,20.60
2023-04-27T11:20:59.757Z,21.25
2023-04-27T11:23:26.355Z,21.17
2023-04-27T11:25:53.989Z,21.13
2023-04-27T11:28:20.766Z,21.17
2023-04-27T11:30:47.352Z,20.69
2023-04-27T11:36:09.065Z,21.09
2023-04-27T11:38:35.909Z,20.95
2023-04-27T11:41:02.787Z,21.43
2023-04-27T11:43:30.460Z,21.52
2023-04-27T11:45:57.053Z,21.64
2023-04-27T11:48:25.724Z,21.76
2023-04-27T11:50:53.129Z,21.38
2023-04-27T11:53:20.846Z,22.11
2023-04-27T11:55:50.448Z,21.96
2023-04-27T11:58:17.785Z,22.27
2023-04-27T12:00:47.675Z,22.55
2023-04-27T12:03:16.982Z,22.03
2023-04-27T12:05:44.088Z,22.42
2023-04-27T12:08:11.031Z,22.55
2023-04-27T12:10:38.878Z,22.04
2023-04-27T12:13:06.047Z,22.24
2023-04-27T12:15:33.353Z,21.20
2023-04-27T12:18:00.097Z,22.16
2023-04-27T12:20:26.691Z,22.61
2023-04-27T12:23:00.147Z,23.09
2023-04-27T12:25:30.986Z,23.08
2023-04-27T12:28:00.721Z,23.33
2023-04-27T12:30:28.152Z,23.25
2023-04-27T12:32:55.012Z,23.30
2023-04-27T12:35:21.931Z,21.83
2023-04-27T12:37:48.793Z,22.29
2023-04-27T12:40:15.432Z,22.22
2023-04-27T12:42:42.514Z,21.92
2023-04-27T12:45:09.264Z,21.62
2023-04-27T12:47:58.094Z,21.90
2023-04-27T12:53:14.737Z,22.68
2023-04-27T12:55:41.259Z,22.91
2023-04-27T12:58:08.129Z,22.84
2023-04-27T13:00:34.878Z,22.95
2023-04-27T13:03:02.648Z,22.50
2023-04-27T13:05:32.239Z,22.93
2023-04-27T13:07:59.039Z,23.00
2023-04-27T13:10:25.496Z,23.43
2023-04-27T13:12:52.590Z,23.96
2023-04-27T13:15:20.271Z,23.92
2023-04-27T13:17:48.109Z,24.10
2023-04-27T13:20:15.522Z,24.32
2023-04-27T13:22:42.984Z,23.86
2023-04-27T13:25:09.646Z,23.64
2023-04-27T13:27:36.475Z,24.44
2023-04-27T13:30:05.492Z,24.27
2023-04-27T13:32:33.025Z,24.76
2023-04-27T13:35:01.786Z,24.45
2023-04-27T13:37:29.261Z,24.61
2023-04-27T13:39:58.231Z,24.28
2023-04-27T13:42:24.736Z,24.86
2023-04-27T13:44:52.562Z,24.50
2023-04-27T13:47:19.998Z,23.84
2023-04-27T13:49:46.622Z,24.08
2023-04-27T13:52:17.144Z,24.67
2023-04-27T13:54:44.306Z,24.79
2023-04-27T13:57:12.064Z,24.48
2023-04-27T13:59:39.196Z,24.42
2023-04-27T14:02:07.643Z,24.23
2023-04-27T14:07:28.381Z,24.84
2023-04-27T14:09:56.090Z,25.26
2023-04-27T14:15:10.396Z,24.66
2023-04-27T14:17:37.340Z,24.78
2023-04-27T14:20:05.057Z,24.74
2023-04-27T14:22:31.618Z,24.52
2023-04-27T14:24:58.193Z,24.73
2023-04-27T14:27:25.064Z,23.97
2023-04-27T14:29:52.633Z,24.82
2023-04-27T14:32:19.613Z,24.57
2023-04-27T14:34:46.482Z,23.85
2023-04-27T14:37:13.828Z,23.50
2023-04-27T14:39:40.780Z,24.16
2023-04-27T14:42:08.017Z,24.51
2023-04-27T14:44:36.911Z,24.14
2023-04-27T14:47:04.251Z,24.46
2023-04-27T14:49:30.833Z,24.12
2023-04-27T14:51:59.663Z,23.35
2023-04-27T14:54:28.090Z,23.68
2023-04-27T14:56:56.203Z,24.25
2023-04-27T14:59:23.936Z,24.20
2023-04-27T15:01:55.836Z,24.48
2023-04-27T15:04:22.796Z,24.58
2023-04-27T15:06:49.719Z,24.20
2023-04-27T15:09:17.564Z,24.27
2023-04-27T15:11:44.251Z,24.65
2023-04-27T15:14:12.083Z,24.17
2023-04-27T15:16:39.132Z,23.35
2023-04-27T15:19:06.136Z,23.53
2023-04-27T15:21:34.905Z,23.88
2023-04-27T15:24:01.828Z,23.32
2023-04-27T15:26:28.276Z,22.84
2023-04-27T15:28:55.144Z,22.84
2023-04-27T15:31:22.091Z,23.45
2023-04-27T15:36:29.414Z,23.56
2023-04-27T15:38:56.101Z,23.43
2023-04-27T15:41:24.670Z,23.46
2023-04-27T15:43:51.319Z,23.86
2023-04-27T15:46:18.193Z,23.41
2023-04-27T15:48:44.747Z,23.21
2023-04-27T15:51:12.341Z,23.61
2023-04-27T15:53:38.924Z,23.42
2023-04-27T15:56:05.450Z,23.29
2023-04-27T15:58:32.020Z,23.50
2023-04-27T16:00:59.330Z,23.94
2023-04-27T16:03:25.991Z,23.87
2023-04-27T16:08:21.991Z,23.48
2023-04-27T16:10:48.581Z,23.23
2023-04-27T16:13:17.291Z,23.47
2023-04-27T16:15:43.865Z,23.77
2023-04-27T16:21:03.469Z,23.94
2023-04-27T16:23:32.158Z,23.88
2023-04-27T16:25:59.709Z,24.01
2023-04-27T16:28:27.164Z,23.29
2023-04-27T16:30:53.910Z,23.86
2023-04-27T16:33:21.681Z,23.60
2023-04-27T16:35:48.252Z,23.08
2023-04-27T16:38:22.393Z,23.17
2023-04-27T16:40:50.091Z,23.21
2023-04-27T16:43:16.644Z,22.94
2023-04-27T16:45:43.475Z,22.45
2023-04-27T16:48:10.754Z,22.80
2023-04-27T16:50:37.553Z,22.62
2023-04-27T16:53:04.315Z,23.27
2023-04-27T16:55:30.828Z,23.21
2023-04-27T16:57:59.430Z,23.72
2023-04-27T17:00:26.333Z,23.72
2023-04-27T17:02:55.494Z,24.04
2023-04-27T17:05:24.337Z,24.06
2023-04-27T17:07:55.509Z,23.39
2023-04-27T17:10:22.021Z,23.01
2023-04-27T17:12:48.867Z,23.14
2023-04-27T17:18:30.710Z,23.24
2023-04-27T17:21:31.043Z,22.89
2023-04-27T17:24:00.053Z,23.06
2023-04-27T17:26:26.870Z,23.26
2023-04-27T17:32:11.163Z,23.42
2023-04-27T17:37:40.274Z,23.45
2023-04-27T17:40:06.830Z,23.06
2023-04-27T17:45:31.107Z,22.40
2023-04-27T17:48:04.777Z,22.22
2023-04-27T17:50:42.327Z,22.33
2023-04-27T17:53:14.485Z,21.92
2023-04-27T17:55:41.437Z,21.79
2023-04-27T17:58:08.020Z,21.80
2023-04-27T18:10:52.192Z,21.71
2023-04-27T18:13:15.783Z,21.55
2023-04-27T18:15:43.329Z,21.81
2023-04-27T18:18:30.166Z,22.09
2023-04-27T18:21:34.661Z,21.61
2023-04-27T18:33:58.972Z,20.54
2023-04-27T18:43:20.831Z,19.99
2023-04-27T18:45:48.638Z,20.37
2023-04-27T18:48:15.450Z,20.68
2023-04-27T18:50:42.275Z,20.80
2023-04-27T18:53:12.470Z,20.67
2023-04-27T18:55:39.576Z,20.77
2023-04-27T18:58:07.107Z,20.74
2023-04-27T19:00:33.997Z,20.75
2023-04-27T19:03:00.863Z,20.59
2023-04-27T19:05:28.333Z,20.73
2023-04-27T19:08:01.091Z,20.85
2023-04-27T19:10:27.962Z,21.01
2023-04-27T19:12:57.632Z,20.87
2023-04-27T19:15:24.233Z,20.34
2023-04-27T19:17:55.461Z,19.90
2023-04-27T19:20:28.949Z,19.66
2023-04-27T19:22:55.445Z,19.53
2023-04-27T19:25:25.985Z,19.07
2023-04-27T19:27:56.374Z,19.26
2023-04-27T19:30:23.266Z,19.09
2023-04-27T19:32:52.633Z,18.94
2023-04-27T19:35:26.853Z,18.77
2023-04-27T19:37:53.647Z,18.85
2023-04-27T19:40:36.249Z,19.16
2023-04-27T19:43:03.139Z,19.65
2023-04-27T19:45:34.321Z,19.84
2023-04-27T19:48:00.846Z,20.01
2023-04-27T19:50:27.731Z,20.45
2023-04-27T19:58:24.538Z,21.31
2023-04-27T20:00:51.311Z,21.20
2023-04-27T20:03:18.271Z,21.45
2023-04-27T20:05:47.255Z,20.76
2023-04-27T20:08:13.864Z,20.62
2023-04-27T20:10:40.796Z,21.26
2023-04-27T20:13:09.713Z,21.70
2023-04-27T20:15:36.327Z,21.52
2023-04-27T20:18:03.123Z,21.33
2023-04-27T20:20:30.761Z,21.03
2023-04-27T20:22:57.524Z,21.38
2023-04-27T20:25:31.324Z,21.32
2023-04-27T20:27:59.081Z,20.10
2023-04-27T20:30:29.031Z,20.89
2023-04-27T20:41:51.142Z,21.40
2023-04-27T20:44:22.794Z,21.57
2023-04-27T20:46:53.815Z,21.63
2023-04-27T20:49:32.142Z,21.73
2023-04-27T20:52:03.230Z,21.67
2023-04-27T20:54:32.163Z,21.28
2023-04-27T20:56:59.486Z,21.55
2023-04-27T20:59:26.049Z,21.43
2023-04-27T21:02:00.598Z,21.37
2023-04-27T21:04:27.784Z,20.96
2023-04-27T21:06:58.193Z,21.19
2023-04-27T21:09:26.769Z,21.30
2023-04-27T21:11:59.071Z,20.84
2023-04-27T21:14:33.115Z,20.05
2023-04-27T21:17:00.725Z,20.25
2023-04-27T21:19:27.386Z,20.85
2023-04-27T21:21:56.655Z,20.93
2023-04-27T21:24:23.829Z,20.34
2023-04-27T21:26:53.034Z,20.23
2023-04-27T21:29:26.721Z,20.22
2023-04-27T21:31:54.666Z,19.77
2023-04-27T21:34:21.481Z,19.64
2023-04-27T21:36:51.070Z,19.89
2023-04-27T21:39:18.328Z,20.05
2023-04-27T21:41:45.888Z,20.20
2023-04-27T21:44:16.789Z,19.82
2023-04-27T21:46:46.095Z,19.65
2023-04-27T21:49:13.449Z,19.55
2023-04-27T21:51:40.789Z,19.30
2023-04-27T21:54:09.741Z,19.62
2023-04-27T21:56:36.368Z,19.69
2023-04-27T21:59:04.990Z,20.04
2023-04-27T22:01:31.818Z,20.38
2023-04-27T22:04:05.865Z,20.35
2023-04-27T22:06:32.498Z,20.31
2023-04-27T22:09:01.513Z,20.20
2023-04-27T22:11:28.547Z,19.97
2023-04-27T22:13:55.010Z,20.55
2023-04-27T22:16:21.585Z,20.34
2023-04-27T22:18:48.387Z,20.31
2023-04-27T22:21:14.849Z,20.25
2023-04-27T22:23:41.715Z,20.38
2023-04-27T22:26:09.117Z,20.70
2023-04-27T22:28:36.082Z,20.72
2023-04-27T22:31:02.637Z,20.38
2023-04-27T22:33:36.591Z,20.42
2023-04-27T22:36:03.145Z,20.47
2023-04-27T22:38:32.847Z,20.58
2023-04-27T22:41:01.553Z,20.31
2023-04-27T22:43:28.291Z,19.78
2023-04-27T22:45:57.210Z,19.37
2023-04-27T22:48:24.844Z,19.28
2023-04-27T22:50:51.756Z,19.03
2023-04-27T22:53:18.359Z,18.70
2023-04-27T22:55:47.785Z,18.87
2023-04-27T22:58:14.424Z,19.44
2023-04-27T23:00:41.240Z,19.23
2023-04-27T23:03:09.970Z,19.29
2023-04-27T23:05:38.692Z,19.33
2023-04-27T23:08:07.699Z,19.28
2023-04-27T23:10:35.784Z,18.80
2023-04-27T23:13:03.950Z,18.41
2023-04-27T23:15:30.839Z,18.96
2023-04-27T23:17:57.538Z,19.46
2023-04-27T23:20:28.665Z,19.03
2023-04-27T23:22:57.082Z,19.10
2023-04-27T23:25:23.745Z,18.75
2023-04-27T23:27:52.177Z,18.58
2023-04-27T23:30:19.352Z,18.34
2023-04-27T23:32:46.314Z,18.71
2023-04-27T23:35:16.132Z,18.34
2023-04-27T23:37:43.519Z,18.09
2023-04-27T23:40:11.723Z,18.43
2023-04-27T23:42:40.496Z,18.64
2023-04-27T23:45:07.555Z,19.08
2023-04-27T23:47:34.485Z,18.92
2023-04-27T23:50:01.448Z,18.85
2023-04-27T23:52:32.735Z,18.99
2023-04-27T23:55:03.193Z,18.54
2023-04-27T23:57:33.754Z,18.67
